createdAt,value
2023-12-11T00:02:12.094Z,8.70
2023-12-11T00:04:38.711Z,8.71
2023-12-11T00:07:05.248Z,9.02
2023-12-11T00:09:31.900Z,8.89
2023-12-11T00:11:58.401Z,9.03
2023-12-11T00:14:25.031Z,9.03
2023-12-11T00:16:52.335Z,8.88
2023-12-11T00:19:19.353Z,9.03
2023-12-11T00:21:46.118Z,9.02
2023-12-11T00:24:12.692Z,8.92
2023-12-11T00:26:39.309Z,8.96
2023-12-11T00:29:05.846Z,8.83
2023-12-11T00:31:32.380Z,8.81
2023-12-11T00:34:02.042Z,8.88
2023-12-11T00:36:28.669Z,8.90
2023-12-11T00:38:55.188Z,8.91
2023-12-11T00:41:22.480Z,8.89
2023-12-11T00:43:50.566Z,8.86
2023-12-11T00:46:22.383Z,8.82
2023-12-11T00:48:49.879Z,8.57
2023-12-11T00:51:21.280Z,8.84
2023-12-11T00:53:48.634Z,8.83
2023-12-11T00:56:15.934Z,8.83
2023-12-11T00:58:42.686Z,8.85
2023-12-11T01:01:09.310Z,8.83
2023-12-11T01:03:38.549Z,8.84
2023-12-11T01:06:05.889Z,8.84
2023-12-11T01:08:34.032Z,8.84
2023-12-11T01:11:00.596Z,8.80
2023-12-11T01:13:27.170Z,8.85
2023-12-11T01:15:53.755Z,8.85
2023-12-11T01:18:20.444Z,8.77
2023-12-11T01:20:46.991Z,8.85
2023-12-11T01:23:13.700Z,8.80
2023-12-11T01:25:40.253Z,8.84
2023-12-11T01:28:07.474Z,8.85
2023-12-11T01:30:34.227Z,8.77
2023-12-11T01:33:00.860Z,8.86
2023-12-11T01:35:27.544Z,8.88
2023-12-11T01:37:54.013Z,8.81
2023-12-11T01:40:20.527Z,8.87
2023-12-11T01:42:47.154Z,8.86
2023-12-11T01:45:13.873Z,8.87
2023-12-11T01:47:40.986Z,8.88
2023-12-11T01:50:09.426Z,8.89
2023-12-11T01:52:37.341Z,8.86
2023-12-11T01:55:07.932Z,8.90
2023-12-11T01:57:36.006Z,8.61
2023-12-11T02:00:09.600Z,8.75
2023-12-11T02:02:36.496Z,8.94
2023-12-11T02:05:03.499Z,8.87
2023-12-11T02:07:31.013Z,8.88
2023-12-11T02:09:57.867Z,8.89
2023-12-11T02:12:24.386Z,8.95
2023-12-11T02:14:51.014Z,8.94
2023-12-11T02:17:17.759Z,8.97
2023-12-11T02:19:44.841Z,8.99
2023-12-11T02:22:12.304Z,8.74
2023-12-11T02:24:50.944Z,9.08
2023-12-11T02:27:17.579Z,9.12
2023-12-11T02:29:44.076Z,9.12
2023-12-11T02:32:10.620Z,9.22
2023-12-11T02:34:37.347Z,9.22
2023-12-11T02:37:04.138Z,9.33
2023-12-11T02:39:30.747Z,9.36
2023-12-11T02:41:57.241Z,9.39
2023-12-11T02:44:23.741Z,9.45
2023-12-11T02:46:50.214Z,9.52
2023-12-11T02:49:16.988Z,9.53
2023-12-11T02:51:43.580Z,9.58
2023-12-11T02:54:10.088Z,9.66
2023-12-11T02:56:40.008Z,9.71
2023-12-11T02:59:06.582Z,9.76
2023-12-11T03:01:33.443Z,9.78
2023-12-11T03:04:00.059Z,9.66
2023-12-11T03:06:27.779Z,9.83
2023-12-11T03:08:54.357Z,9.86
2023-12-11T03:11:20.850Z,9.87
2023-12-11T03:13:47.324Z,9.91
2023-12-11T03:16:14.382Z,9.95
2023-12-11T03:18:42.465Z,9.97
2023-12-11T03:21:09.293Z,9.96
2023-12-11T03:23:35.811Z,10.02
2023-12-11T03:26:02.324Z,10.08
2023-12-11T03:28:29.500Z,10.08
2023-12-11T03:30:56.063Z,10.09
2023-12-11T03:33:22.711Z,10.16
2023-12-11T03:35:49.245Z,10.11
2023-12-11T03:38:15.749Z,10.23
2023-12-11T03:40:42.351Z,10.20
2023-12-11T03:43:08.966Z,10.28
2023-12-11T03:45:35.504Z,9.97
2023-12-11T03:48:02.140Z,10.25
2023-12-11T03:50:28.741Z,10.29
2023-12-11T03:52:55.310Z,10.26
2023-12-11T03:55:21.851Z,10.16
2023-12-11T03:57:48.443Z,10.25
2023-12-11T04:00:15.295Z,9.96
2023-12-11T04:02:41.972Z,10.19
2023-12-11T04:05:08.769Z,10.18
2023-12-11T04:07:35.311Z,10.16
2023-12-11T04:10:01.988Z,10.20
2023-12-11T04:12:28.553Z,10.20
2023-12-11T04:14:55.103Z,10.25
2023-12-11T04:17:22.907Z,10.25
2023-12-11T04:19:49.667Z,10.27
2023-12-11T04:22:16.256Z,10.29
2023-12-11T04:24:42.884Z,10.37
2023-12-11T04:27:09.407Z,10.42
2023-12-11T04:29:35.911Z,10.41
2023-12-11T04:32:02.674Z,10.48
2023-12-11T04:34:29.189Z,10.50
2023-12-11T04:36:55.815Z,10.49
2023-12-11T04:39:22.531Z,10.52
2023-12-11T04:41:49.315Z,10.57
2023-12-11T04:44:15.877Z,10.39
2023-12-11T04:46:42.388Z,10.58
2023-12-11T04:49:09.141Z,10.63
2023-12-11T04:51:35.758Z,10.63
2023-12-11T04:54:02.295Z,10.58
2023-12-11T04:56:28.991Z,10.32
2023-12-11T04:58:55.588Z,10.51
2023-12-11T05:01:23.327Z,10.58
2023-12-11T05:03:49.982Z,10.68
2023-12-11T05:06:16.554Z,10.71
2023-12-11T05:08:43.063Z,10.70
2023-12-11T05:11:09.533Z,10.75
2023-12-11T05:13:36.104Z,10.54
2023-12-11T05:16:03.047Z,10.78
2023-12-11T05:18:29.609Z,10.73
2023-12-11T05:20:56.140Z,10.77
2023-12-11T05:23:22.750Z,10.79
2023-12-11T05:25:49.225Z,10.75
2023-12-11T05:28:15.804Z,10.80
2023-12-11T05:30:42.363Z,10.63
2023-12-11T05:33:09.039Z,10.51
2023-12-11T05:35:35.923Z,10.78
2023-12-11T05:38:02.558Z,10.81
2023-12-11T05:40:29.104Z,10.82
2023-12-11T05:42:55.637Z,10.83
2023-12-11T05:45:22.469Z,10.83
2023-12-11T05:47:49.174Z,10.83
2023-12-11T05:50:16.156Z,10.83
2023-12-11T05:52:42.887Z,10.82
2023-12-11T05:55:10.069Z,10.81
2023-12-11T05:57:37.084Z,10.76
2023-12-11T06:00:05.444Z,10.81
2023-12-11T06:02:32.216Z,10.82
2023-12-11T06:04:58.902Z,10.81
2023-12-11T06:07:25.744Z,10.79
2023-12-11T06:09:52.353Z,10.78
2023-12-11T06:12:18.969Z,10.80
2023-12-11T06:14:48.470Z,10.78
2023-12-11T06:17:16.272Z,10.82
2023-12-11T06:19:46.301Z,10.77
2023-12-11T06:22:13.128Z,10.80
2023-12-11T06:24:43.359Z,10.81
2023-12-11T06:27:10.228Z,10.93
2023-12-11T06:29:37.612Z,10.83
2023-12-11T06:32:04.766Z,10.81
2023-12-11T06:34:31.860Z,10.79
2023-12-11T06:36:58.534Z,10.81
2023-12-11T06:39:26.748Z,10.79
2023-12-11T06:41:54.005Z,10.80
2023-12-11T06:44:20.625Z,10.80
2023-12-11T06:46:47.477Z,10.80
2023-12-11T06:49:14.063Z,10.80
2023-12-11T06:51:40.685Z,10.80
2023-12-11T06:54:07.410Z,10.80
2023-12-11T06:56:33.999Z,10.79
2023-12-11T06:59:00.622Z,10.81
2023-12-11T07:01:36.679Z,10.84
2023-12-11T07:04:04.302Z,10.83
2023-12-11T07:06:31.203Z,10.80
2023-12-11T07:08:58.304Z,10.85
2023-12-11T07:11:25.765Z,10.66
2023-12-11T07:13:54.272Z,10.85
2023-12-11T07:16:21.170Z,10.82
2023-12-11T07:18:48.248Z,10.87
2023-12-11T07:21:14.869Z,10.87
2023-12-11T07:23:41.435Z,10.86
2023-12-11T07:26:11.431Z,10.62
2023-12-11T07:28:38.359Z,10.87
2023-12-11T07:31:06.913Z,10.78
2023-12-11T07:33:34.295Z,10.49
2023-12-11T07:36:01.028Z,10.78
2023-12-11T07:38:27.786Z,10.79
2023-12-11T07:40:58.560Z,10.79
2023-12-11T07:43:25.345Z,10.53
2023-12-11T07:45:53.144Z,10.75
2023-12-11T07:48:20.340Z,10.68
2023-12-11T07:50:47.405Z,10.66
2023-12-11T07:53:14.125Z,10.68
2023-12-11T07:55:41.287Z,10.73
2023-12-11T07:58:07.992Z,10.74
2023-12-11T08:00:34.736Z,10.74
2023-12-11T08:03:02.185Z,10.78
2023-12-11T08:05:28.920Z,10.80
2023-12-11T08:07:55.554Z,10.69
2023-12-11T08:10:22.261Z,10.83
2023-12-11T08:12:54.513Z,10.81
2023-12-11T08:15:21.177Z,10.78
2023-12-11T08:17:48.146Z,10.83
2023-12-11T08:20:19.004Z,10.86
2023-12-11T08:22:46.709Z,10.84
2023-12-11T08:25:14.623Z,10.87
2023-12-11T08:27:43.004Z,10.87
2023-12-11T08:30:11.135Z,10.91
2023-12-11T08:32:38.938Z,10.84
2023-12-11T08:35:06.651Z,10.91
2023-12-11T08:37:33.854Z,10.97
2023-12-11T08:40:01.265Z,10.99
2023-12-11T08:42:28.167Z,11.00
2023-12-11T08:44:54.900Z,10.86
2023-12-11T08:47:21.545Z,11.04
2023-12-11T08:49:48.231Z,11.08
2023-12-11T08:52:15.106Z,11.06
2023-12-11T08:54:41.853Z,11.13
2023-12-11T08:57:08.633Z,11.15
2023-12-11T08:59:35.165Z,11.14
2023-12-11T09:02:02.068Z,11.17
2023-12-11T09:04:28.676Z,11.19
2023-12-11T09:06:55.252Z,11.01
2023-12-11T09:09:21.743Z,11.20
2023-12-11T09:11:49.903Z,11.18
2023-12-11T09:14:16.807Z,11.05
2023-12-11T09:16:43.288Z,11.17
2023-12-11T09:19:09.948Z,10.81
2023-12-11T09:21:37.144Z,10.78
2023-12-11T09:24:05.020Z,11.00
2023-12-11T09:26:31.588Z,10.93
2023-12-11T09:28:59.192Z,11.00
2023-12-11T09:31:25.988Z,10.98
2023-12-11T09:33:52.988Z,11.00
2023-12-11T09:36:19.699Z,10.99
2023-12-11T09:38:46.197Z,11.01
2023-12-11T09:41:13.120Z,11.00
2023-12-11T09:43:40.153Z,10.96
2023-12-11T09:46:12.342Z,10.93
2023-12-11T09:48:39.209Z,10.97
2023-12-11T09:51:06.596Z,11.02
2023-12-11T09:53:33.642Z,11.12
2023-12-11T09:56:00.712Z,10.91
2023-12-11T09:58:27.872Z,11.17
2023-12-11T10:01:02.098Z,11.18
2023-12-11T10:03:29.788Z,11.23
2023-12-11T10:06:00.635Z,11.20
2023-12-11T10:08:27.290Z,11.25
2023-12-11T10:11:14.664Z,11.28
2023-12-11T10:13:41.924Z,11.18
2023-12-11T10:16:31.044Z,11.40
2023-12-11T10:18:58.488Z,11.38
2023-12-11T10:21:25.769Z,11.36
2023-12-11T10:24:21.648Z,11.46
2023-12-11T10:26:56.932Z,11.36
2023-12-11T10:29:26.521Z,11.34
2023-12-11T10:32:00.681Z,11.46
2023-12-11T10:34:49.657Z,11.54
2023-12-11T10:37:16.304Z,11.50
2023-12-11T10:39:53.187Z,11.56
2023-12-11T10:42:19.704Z,11.57
2023-12-11T10:44:50.318Z,11.57
2023-12-11T10:47:21.051Z,11.61
2023-12-11T10:49:48.279Z,11.66
2023-12-11T10:52:15.083Z,11.64
2023-12-11T10:54:45.189Z,11.52
2023-12-11T10:57:18.221Z,11.70
2023-12-11T10:59:45.724Z,11.69
2023-12-11T11:02:15.438Z,11.66
2023-12-11T11:04:44.548Z,11.58
2023-12-11T11:07:23.636Z,11.67
2023-12-11T11:10:05.443Z,11.60
2023-12-11T11:12:49.637Z,11.62
2023-12-11T11:15:25.936Z,11.74
2023-12-11T11:18:06.564Z,11.85
2023-12-11T11:20:34.881Z,11.89
2023-12-11T11:23:16.673Z,12.06
2023-12-11T11:25:46.553Z,11.73
2023-12-11T11:28:42.847Z,12.14
2023-12-11T11:31:19.311Z,12.10
2023-12-11T11:33:53.321Z,12.20
2023-12-11T11:36:22.628Z,12.10
2023-12-11T11:38:59.757Z,12.33
2023-12-11T11:41:28.835Z,12.35
2023-12-11T11:43:57.590Z,12.34
2023-12-11T11:46:25.078Z,12.36
2023-12-11T11:48:51.854Z,12.37
2023-12-11T11:51:20.697Z,12.29
2023-12-11T11:53:55.631Z,12.38
2023-12-11T11:56:22.167Z,12.35
2023-12-11T11:58:48.699Z,12.36
2023-12-11T12:01:15.227Z,12.35
2023-12-11T12:03:45.392Z,12.41
2023-12-11T12:06:14.648Z,12.42
2023-12-11T12:08:44.007Z,12.43
2023-12-11T12:11:12.946Z,12.17
2023-12-11T12:13:39.765Z,12.42
2023-12-11T12:16:06.779Z,12.18
2023-12-11T12:18:33.748Z,12.41
2023-12-11T12:21:06.732Z,12.42
2023-12-11T12:23:33.582Z,12.41
2023-12-11T12:26:02.244Z,12.32
2023-12-11T12:28:29.137Z,12.38
2023-12-11T12:30:55.948Z,12.38
2023-12-11T12:33:23.080Z,12.35
2023-12-11T12:35:50.393Z,12.32
2023-12-11T12:38:17.379Z,12.24
2023-12-11T12:40:44.043Z,12.27
2023-12-11T12:43:14.921Z,12.08
2023-12-11T12:45:42.426Z,12.22
2023-12-11T12:48:10.047Z,12.16
2023-12-11T12:50:37.244Z,12.18
2023-12-11T12:53:06.116Z,11.98
2023-12-11T12:55:33.565Z,12.11
2023-12-11T12:58:00.323Z,12.09
2023-12-11T13:00:28.038Z,12.08
2023-12-11T13:02:55.734Z,12.05
2023-12-11T13:05:22.369Z,11.91
2023-12-11T13:07:59.373Z,12.05
2023-12-11T13:10:27.149Z,11.85
2023-12-11T13:12:53.961Z,11.98
2023-12-11T13:15:20.490Z,12.04
2023-12-11T13:17:53.390Z,12.04
2023-12-11T13:20:23.187Z,12.02
2023-12-11T13:22:49.824Z,11.99
2023-12-11T13:25:16.875Z,11.93
2023-12-11T13:27:47.807Z,11.95
2023-12-11T13:30:18.090Z,11.93
2023-12-11T13:32:44.790Z,11.91
2023-12-11T13:35:12.255Z,11.88
2023-12-11T13:37:39.094Z,11.79
2023-12-11T13:40:09.407Z,11.85
2023-12-11T13:42:37.267Z,11.94
2023-12-11T13:45:04.947Z,11.81
2023-12-11T13:47:31.812Z,11.76
2023-12-11T13:49:58.742Z,11.78
2023-12-11T13:52:25.428Z,11.74
2023-12-11T13:54:52.704Z,11.49
2023-12-11T13:57:20.845Z,11.72
2023-12-11T13:59:47.354Z,11.71
2023-12-11T14:02:13.945Z,11.48
2023-12-11T14:04:40.588Z,11.72
2023-12-11T14:07:07.140Z,11.58
2023-12-11T14:09:34.427Z,11.68
2023-12-11T14:12:02.297Z,11.54
2023-12-11T14:14:29.109Z,11.68
2023-12-11T14:16:55.672Z,11.64
2023-12-11T14:19:22.238Z,11.63
2023-12-11T14:21:48.808Z,11.49
2023-12-11T14:24:15.748Z,11.54
2023-12-11T14:26:47.635Z,11.49
2023-12-11T14:29:18.844Z,11.40
2023-12-11T14:31:46.585Z,11.37
2023-12-11T14:34:14.682Z,11.30
2023-12-11T14:36:41.835Z,11.22
2023-12-11T14:39:08.662Z,11.15
2023-12-11T14:41:35.196Z,11.12
2023-12-11T14:44:01.764Z,11.09
2023-12-11T14:46:28.388Z,11.07
2023-12-11T14:48:55.277Z,10.79
2023-12-11T14:51:21.855Z,11.04
2023-12-11T14:53:48.398Z,11.01
2023-12-11T14:56:14.873Z,10.87
2023-12-11T14:58:41.584Z,10.96
2023-12-11T15:01:08.263Z,10.94
2023-12-11T15:03:35.517Z,10.90
2023-12-11T15:06:03.499Z,10.85
2023-12-11T15:08:31.006Z,10.88
2023-12-11T15:10:57.639Z,10.80
2023-12-11T15:13:24.398Z,10.78
2023-12-11T15:15:51.719Z,10.82
2023-12-11T15:18:18.254Z,10.83
2023-12-11T15:20:44.813Z,10.78
2023-12-11T15:23:12.954Z,10.77
2023-12-11T15:25:39.905Z,10.80
2023-12-11T15:28:06.452Z,10.81
2023-12-11T15:30:33.376Z,10.79
2023-12-11T15:33:00.300Z,10.78
2023-12-11T15:35:27.060Z,10.84
2023-12-11T15:37:53.539Z,10.77
2023-12-11T15:40:20.027Z,10.57
2023-12-11T15:42:46.898Z,10.80
2023-12-11T15:45:14.719Z,10.78
2023-12-11T15:48:00.283Z,10.78
2023-12-11T15:50:27.771Z,10.77
2023-12-11T15:52:54.500Z,10.77
2023-12-11T15:55:21.469Z,10.62
2023-12-11T15:57:48.333Z,10.47
2023-12-11T16:00:15.520Z,10.76
2023-12-11T16:02:42.059Z,10.75
2023-12-11T16:05:09.676Z,10.73
2023-12-11T16:07:37.029Z,10.73
2023-12-11T16:10:04.371Z,10.72
2023-12-11T16:12:32.448Z,10.70
2023-12-11T16:14:59.257Z,10.70
2023-12-11T16:17:26.142Z,10.68
2023-12-11T16:19:52.777Z,10.53
2023-12-11T16:22:20.029Z,10.70
2023-12-11T16:24:47.408Z,10.70
2023-12-11T16:27:14.105Z,10.59
2023-12-11T16:29:40.614Z,10.67
2023-12-11T16:32:07.892Z,10.23
2023-12-11T16:34:34.605Z,10.66
2023-12-11T16:37:01.257Z,10.38
2023-12-11T16:39:27.747Z,10.65
2023-12-11T16:41:54.431Z,10.53
2023-12-11T16:44:21.125Z,10.59
2023-12-11T16:46:48.323Z,10.62
2023-12-11T16:49:14.920Z,10.44
2023-12-11T16:51:41.546Z,10.60
2023-12-11T16:54:08.357Z,10.50
2023-12-11T16:56:34.948Z,10.56
2023-12-11T16:59:01.534Z,10.54
2023-12-11T17:01:28.175Z,10.50
2023-12-11T17:03:54.905Z,10.49
2023-12-11T17:06:24.077Z,10.37
2023-12-11T17:08:50.822Z,10.43
2023-12-11T17:11:17.297Z,10.42
2023-12-11T17:13:43.949Z,10.38
2023-12-11T17:16:10.454Z,10.43
2023-12-11T17:18:37.296Z,10.31
2023-12-11T17:21:06.772Z,10.39
2023-12-11T17:23:33.877Z,10.12
2023-12-11T17:26:01.144Z,10.36
2023-12-11T17:28:27.704Z,10.31
2023-12-11T17:30:54.337Z,10.33
2023-12-11T17:33:21.283Z,10.23
2023-12-11T17:35:47.810Z,10.31
2023-12-11T17:38:14.933Z,10.26
2023-12-11T17:40:41.353Z,10.29
2023-12-11T17:43:08.834Z,10.30
2023-12-11T17:45:36.234Z,10.23
2023-12-11T17:48:04.775Z,10.27
2023-12-11T17:50:31.683Z,10.26
2023-12-11T17:52:58.565Z,10.00
2023-12-11T17:55:25.122Z,10.26
2023-12-11T17:57:51.781Z,10.25
2023-12-11T18:00:18.685Z,10.17
2023-12-11T18:02:45.087Z,10.20
2023-12-11T18:05:11.773Z,10.16
2023-12-11T18:07:38.324Z,10.17
2023-12-11T18:10:05.384Z,10.14
2023-12-11T18:12:33.025Z,10.12
2023-12-11T18:15:00.596Z,9.99
2023-12-11T18:17:27.149Z,10.03
2023-12-11T18:19:53.804Z,9.69
2023-12-11T18:22:20.482Z,9.95
2023-12-11T18:24:47.121Z,9.95
2023-12-11T18:27:13.645Z,9.90
2023-12-11T18:29:40.064Z,9.66
2023-12-11T18:32:06.848Z,9.85
2023-12-11T18:34:42.980Z,9.81
2023-12-11T18:37:18.474Z,9.83
2023-12-11T18:39:45.400Z,9.79
2023-12-11T18:42:12.723Z,9.78
2023-12-11T18:44:39.804Z,9.77
2023-12-11T18:47:06.528Z,9.74
2023-12-11T18:49:33.398Z,9.66
2023-12-11T18:51:59.949Z,9.74
2023-12-11T18:54:26.449Z,9.76
2023-12-11T18:56:52.974Z,9.73
2023-12-11T18:59:19.497Z,9.76
2023-12-11T19:01:46.219Z,9.76
2023-12-11T19:04:12.956Z,9.78
2023-12-11T19:06:39.911Z,9.67
2023-12-11T19:09:08.554Z,9.80
2023-12-11T19:11:35.892Z,9.82
2023-12-11T19:14:02.549Z,9.85
2023-12-11T19:16:29.078Z,9.80
2023-12-11T19:18:55.752Z,9.53
2023-12-11T19:21:22.308Z,9.85
2023-12-11T19:23:50.859Z,9.84
2023-12-11T19:26:17.350Z,9.84
2023-12-11T19:28:43.816Z,9.75
2023-12-11T19:31:10.315Z,9.84
2023-12-11T19:33:36.953Z,9.84
2023-12-11T19:38:31.055Z,9.81
2023-12-11T19:40:57.539Z,9.65
2023-12-11T19:43:24.751Z,9.78
2023-12-11T19:45:52.952Z,9.80
2023-12-11T19:48:22.367Z,9.76
2023-12-11T19:50:48.943Z,9.58
2023-12-11T19:53:17.684Z,9.80
2023-12-11T19:55:44.128Z,9.80
2023-12-11T19:58:10.644Z,9.62
2023-12-11T20:00:37.878Z,9.74
2023-12-11T20:03:04.443Z,9.76
2023-12-11T20:05:31.051Z,9.31
2023-12-11T20:07:57.500Z,9.71
2023-12-11T20:10:31.764Z,9.74
2023-12-11T20:13:34.125Z,9.73
2023-12-11T20:16:20.296Z,9.72
2023-12-11T20:18:47.165Z,9.64
2023-12-11T20:21:14.127Z,9.69
2023-12-11T20:23:40.589Z,9.67
2023-12-11T20:26:07.542Z,9.63
2023-12-11T20:28:34.121Z,9.55
2023-12-11T20:31:00.799Z,9.55
2023-12-11T20:33:27.481Z,9.43
2023-12-11T20:35:54.544Z,9.61
2023-12-11T20:38:21.013Z,9.57
2023-12-11T20:40:48.470Z,9.61
2023-12-11T20:43:15.227Z,9.62
2023-12-11T20:45:41.882Z,9.62
2023-12-11T20:48:08.461Z,9.64
2023-12-11T20:50:36.126Z,9.57
2023-12-11T20:53:02.673Z,9.64
2023-12-11T20:55:29.249Z,9.64
2023-12-11T20:57:55.847Z,9.63
2023-12-11T21:00:22.852Z,9.63
2023-12-11T21:02:49.400Z,9.63
2023-12-11T21:05:16.401Z,9.65
2023-12-11T21:07:44.359Z,9.64
2023-12-11T21:10:11.170Z,9.61
2023-12-11T21:12:37.630Z,9.64
2023-12-11T21:15:04.701Z,9.67
2023-12-11T21:17:31.842Z,9.68
2023-12-11T21:19:58.727Z,9.49
2023-12-11T21:22:25.325Z,9.65
2023-12-11T21:24:51.930Z,9.53
2023-12-11T21:27:18.507Z,9.74
2023-12-11T21:29:45.185Z,9.77
2023-12-11T21:32:11.920Z,9.74
2023-12-11T21:34:43.410Z,9.79
2023-12-11T21:37:10.402Z,9.78
2023-12-11T21:39:37.041Z,9.76
2023-12-11T21:42:04.808Z,9.69
2023-12-11T21:44:32.181Z,9.79
2023-12-11T21:46:59.269Z,9.79
2023-12-11T21:49:25.986Z,9.63
2023-12-11T21:51:52.677Z,9.64
2023-12-11T21:54:19.445Z,9.73
2023-12-11T21:56:45.936Z,9.78
2023-12-11T21:59:12.373Z,9.77
2023-12-11T22:01:38.949Z,9.77
2023-12-11T22:04:05.661Z,9.78
2023-12-11T22:06:34.081Z,9.71
2023-12-11T22:09:00.580Z,9.78
2023-12-11T22:11:27.082Z,9.57
2023-12-11T22:13:53.571Z,9.79
2023-12-11T22:16:20.133Z,9.79
2023-12-11T22:18:49.016Z,9.71
2023-12-11T22:21:25.195Z,9.81
2023-12-11T22:23:53.436Z,9.79
2023-12-11T22:26:20.854Z,9.52
2023-12-11T22:28:48.103Z,9.77
2023-12-11T22:31:14.871Z,9.72
2023-12-11T22:33:41.345Z,9.79
2023-12-11T22:36:08.121Z,9.79
2023-12-11T22:38:34.750Z,9.49
2023-12-11T22:41:02.040Z,9.55
2023-12-11T22:43:28.840Z,9.81
2023-12-11T22:45:55.344Z,9.81
2023-12-11T22:48:21.868Z,9.81
2023-12-11T22:50:48.418Z,9.78
2023-12-11T22:53:14.902Z,9.80
2023-12-11T22:55:41.392Z,9.83
2023-12-11T22:58:15.635Z,9.78
2023-12-11T23:00:43.645Z,9.80
2023-12-11T23:03:10.272Z,9.45
2023-12-11T23:05:36.807Z,9.75
2023-12-11T23:08:03.484Z,9.71
2023-12-11T23:10:29.967Z,9.45
2023-12-11T23:12:56.551Z,9.61
2023-12-11T23:15:23.131Z,9.82
2023-12-11T23:17:49.730Z,9.83
2023-12-11T23:20:16.390Z,9.83
2023-12-11T23:22:43.098Z,9.82
2023-12-11T23:25:09.740Z,9.82
2023-12-11T23:27:36.271Z,9.61
2023-12-11T23:30:07.383Z,9.81
2023-12-11T23:32:35.688Z,9.75
2023-12-11T23:35:03.753Z,9.51
2023-12-11T23:37:30.642Z,9.71
2023-12-11T23:39:57.406Z,9.34
2023-12-11T23:42:23.896Z,9.58
2023-12-11T23:44:50.337Z,9.52
2023-12-11T23:47:17.049Z,9.43
2023-12-11T23:49:43.801Z,9.32
2023-12-11T23:52:10.460Z,9.28
2023-12-11T23:54:36.936Z,9.16
2023-12-11T23:57:03.642Z,9.12
2023-12-11T23:59:30.157Z,9.04
